Latest Coastal Weather Observations for Spring Bay

IDT60701

Issued at 2:25 pm EST Thursday 24 July 2014 (issued every 10 minutes, with the page automatically refreshed every 10 minutes)

About coastal observations | Map of coastal stations | Coastal observations for TAS | Marine services | Other Formats
Station Details ID: 092133 Name: SPRING BAY NTC AWS Lat: -42.55 Lon: 147.93 Height: 0.0 m
Data from the previous 72 hours. | See also: Recent months for locations in Tasmania
Date/Time
EST
Temp

°C
Wind Pressure Rain
since 9am
mm
Weather Cloud Vis
km
Sea
Height
m
Swell
Dir
 
Speed
knots
Gust
knots
hPa Trend Height
m
Period
s
Dir
24/02:00pm 11.9 NNE 5 6 1017.9 - - - - - - - - -
24/01:30pm 11.5 NE 5 6 1018.2 - - - - - - - - -
24/01:00pm 11.2 NE 7 8 1018.5 - - - - - - - - -
24/12:30pm 12.4 ENE 4 7 1018.7 - - - - - - - - -
24/12:00pm 10.4 E 3 5 1019.2 - - - - - - - - -
24/11:30am 9.1 SSE 1 3 1019.7 - - - - - - - - -
24/11:00am 8.7 S 1 3 1020.1 - - - - - - - - -
24/10:30am 8.5 SW 2 3 1020.4 - - - - - - - - -
24/10:00am 8.3 SW 2 3 1020.5 - - - - - - - - -
24/09:30am 6.1 WNW 1 2 1020.3 - - - - - - - - -
24/09:00am 4.5 W 3 5 1020.3 - - - - - - - - -
24/08:30am 3.6 NW 3 4 1020.1 - - - - - - - - -
24/08:00am 3.5 WNW 3 5 1020.1 - - - - - - - - -
24/07:30am 3.1 NNW 4 5 1020.0 - - - - - - - - -
24/07:00am 2.8 WNW 2 4 1019.9 - - - - - - - - -
24/06:30am 3.5 NNW 1 3 1019.8 - - - - - - - - -
24/06:00am 3.5 NW 2 3 1019.8 - - - - - - - - -
24/05:30am 3.4 NW 1 2 1019.7 - - - - - - - - -
24/05:00am 3.6 WNW 2 4 1019.7 - - - - - - - - -
24/04:30am 3.6 NW 4 5 1019.7 - - - - - - - - -
24/04:00am 3.7 NW 4 5 1019.7 - - - - - - - - -
24/03:30am 3.6 NW 4 5 1019.7 - - - - - - - - -
24/03:00am 3.6 NW 3 4 1019.8 - - - - - - - - -
24/02:30am 3.9 WNW 3 5 1020.1 - - - - - - - - -
24/02:00am 4.4 WNW 2 4 1020.0 - - - - - - - - -
24/01:30am 4.2 NW 4 6 1020.1 - - - - - - - - -
24/01:00am 4.7 NW 4 6 1020.2 - - - - - - - - -
24/12:30am 4.3 NNW 5 5 1020.4 - - - - - - - - -
24/12:00am 5.0 NW 4 5 1020.7 - - - - - - - - -
 
Date/Time
EST
Temp

°C
Wind Pressure Rain
since 9am
mm
Weather Cloud Vis
km
Sea
Height
m
Swell
Dir
 
Speed
knots
Gust
knots
hPa Trend Height
m
Period
s
Dir
23/11:30pm 4.8 NNW 5 7 1021.0 - - - - - - - - -
23/11:00pm 5.2 NNW 5 6 1021.2 - - - - - - - - -
23/10:30pm 5.5 NNW 4 5 1021.4 - - - - - - - - -
23/10:00pm 6.0 NW 4 5 1021.5 - - - - - - - - -
23/09:30pm 6.3 NW 4 5 1021.6 - - - - - - - - -
23/09:00pm 6.7 NW 3 5 1021.7 - - - - - - - - -
23/08:30pm 7.1 NW 5 8 1021.7 - - - - - - - - -
23/08:00pm 7.1 NNW 6 7 1021.6 - - - - - - - - -
23/07:30pm 7.5 NNW 6 7 1021.7 - - - - - - - - -
23/07:00pm 8.2 NNW 5 6 1021.5 - - - - - - - - -
23/06:30pm 9.2 NW 3 5 1021.4 - - - - - - - - -
23/06:00pm 10.1 NNW 3 4 1021.3 - - - - - - - - -
23/05:30pm 11.1 N 4 5 1021.4 - - - - - - - - -
23/05:00pm 11.4 N 4 5 1021.3 - - - - - - - - -
23/04:30pm 11.9 NNE 5 6 1021.1 - - - - - - - - -
23/04:00pm 12.1 NE 4 6 1021.0 - - - - - - - - -
23/03:30pm 12.4 NNE 5 7 1021.0 - - - - - - - - -
23/03:00pm 12.3 NE 5 7 1021.0 - - - - - - - - -
23/02:30pm 12.9 NE 5 7 1021.0 - - - - - - - - -
23/02:00pm 12.5 NE 6 8 1021.1 - - - - - - - - -
23/01:30pm 12.9 ENE 2 4 1021.4 - - - - - - - - -
23/01:00pm 12.6 E 3 4 1021.9 - - - - - - - - -
23/12:30pm 12.5 ESE 2 4 1022.4 - - - - - - - - -
23/12:00pm 14.6 SSW 2 3 1022.6 - - - - - - - - -
23/11:30am 13.8 SW 5 6 1023.1 - - - - - - - - -
23/11:00am 13.1 SW 4 6 1023.6 - - - - - - - - -
23/10:30am 12.6 WSW 2 4 1024.0 - - - - - - - - -
23/10:00am 10.1 WSW 5 8 1024.1 - - - - - - - - -
23/09:30am 8.8 W 4 6 1024.1 - - - - - - - - -
23/09:00am 8.7 W 5 10 1024.1 - - - - - - - - -
23/08:30am 7.4 W 4 6 1024.0 - - - - - - - - -
23/08:00am 7.6 W 5 11 1024.0 - - - - - - - - -
23/07:30am 7.5 WNW 6 11 1023.9 - - - - - - - - -
23/07:00am 8.1 WNW 6 8 1023.8 - - - - - - - - -
23/06:30am 9.0 WSW 7 9 1023.5 - - - - - - - - -
23/06:00am 7.8 WSW 4 6 1023.5 - - - - - - - - -
23/05:30am 7.8 W 3 4 1023.3 - - - - - - - - -
23/05:00am 8.0 WSW 2 4 1023.4 - - - - - - - - -
23/04:30am 7.8 WSW 2 3 1023.5 - - - - - - - - -
23/04:00am 8.0 WNW 3 4 1023.5 - - - - - - - - -
23/03:30am 8.1 WNW 4 5 1023.5 - - - - - - - - -
23/03:00am 8.1 W 5 7 1023.6 - - - - - - - - -
23/02:30am 8.3 WNW 4 7 1023.6 - - - - - - - - -
23/02:00am 8.1 W 4 7 1023.8 - - - - - - - - -
23/01:30am 8.2 W 4 7 1023.7 - - - - - - - - -
23/01:00am 7.9 W 4 6 1023.7 - - - - - - - - -
23/12:30am 8.2 WNW 4 8 1023.9 - - - - - - - - -
23/12:00am 7.9 W 4 8 1024.1 - - - - - - - - -
 
Date/Time
EST
Temp

°C
Wind Pressure Rain
since 9am
mm
Weather Cloud Vis
km
Sea
Height
m
Swell
Dir
 
Speed
knots
Gust
knots
hPa Trend Height
m
Period
s
Dir
22/11:30pm 7.6 W 4 6 1024.1 - - - - - - - - -
22/11:00pm 6.9 NW 3 5 1024.3 - - - - - - - - -
22/10:30pm 6.8 WNW 4 6 1024.4 - - - - - - - - -
22/10:00pm 6.9 WNW 4 6 1024.4 - - - - - - - - -
22/09:30pm 6.2 NW 4 6 1024.4 - - - - - - - - -
22/09:00pm 6.9 NNW 5 6 1024.3 - - - - - - - - -
22/08:30pm 6.8 NNW 5 6 1024.2 - - - - - - - - -
22/08:00pm 7.2 NW 6 8 1024.2 - - - - - - - - -
22/07:30pm 7.3 NNW 5 6 1024.4 - - - - - - - - -
22/07:00pm 7.6 NNW 6 7 1024.5 - - - - - - - - -
22/06:30pm 7.7 NW 4 5 1024.4 - - - - - - - - -
22/06:00pm 8.2 NW 3 4 1024.2 - - - - - - - - -
22/05:30pm 9.1 NW 4 5 1024.1 - - - - - - - - -
22/05:00pm 10.1 N 4 7 1023.8 - - - - - - - - -
22/04:30pm 11.4 N 2 4 1023.7 - - - - - - - - -
22/04:00pm 12.1 E 6 7 1023.6 - - - - - - - - -
22/03:30pm 13.2 ESE 2 3 1023.5 - - - - - - - - -
22/03:00pm 12.8 E 4 5 1023.5 - - - - - - - - -
22/02:30pm 12.5 E 4 6 1023.3 - - - - - - - - -
22/02:00pm 12.7 ESE 5 7 1023.4 - - - - - - - - -
22/01:30pm 13.2 SW 7 9 1023.6 - - - - - - - - -
22/01:00pm 12.8 WSW 7 8 1024.0 - - - - - - - - -
22/12:30pm 11.8 SW 6 8 1024.3 - - - - - - - - -
22/12:00pm 10.3 SW 8 11 1024.8 - - - - - - - - -
22/11:30am 9.4 WSW 8 11 1025.3 - - - - - - - - -
22/11:00am 9.7 SW 5 7 1025.6 - - - - - - - - -
22/10:30am 8.7 WSW 6 9 1025.7 - - - - - - - - -
22/10:00am 9.0 WSW 4 5 1025.8 - - - - - - - - -
22/09:30am 6.9 WSW 6 9 1026.1 - - - - - - - - -
22/09:00am 6.4 WSW 8 11 1026.3 - - - - - - - - -
22/08:30am 4.7 WSW 6 11 1026.2 - - - - - - - - -
22/08:00am 3.3 W 5 9 1025.8 - - - - - - - - -
22/07:30am 3.7 WNW 4 6 1025.4 - - - - - - - - -
22/07:00am 3.8 W 4 7 1025.2 - - - - - - - - -
22/06:30am 3.1 WNW 4 7 1025.0 - - - - - - - - -
22/06:00am 3.7 W 5 8 1025.1 - - - - - - - - -
22/05:30am 3.8 WNW 3 5 1024.9 - - - - - - - - -
22/05:00am 4.1 W 5 8 1025.0 - - - - - - - - -
22/04:30am 4.8 W 6 9 1024.9 - - - - - - - - -
22/04:00am 5.0 WSW 7 11 1024.9 - - - - - - - - -
22/03:30am 4.7 WNW 3 5 1025.0 - - - - - - - - -
22/03:00am 4.8 W 4 7 1025.1 - - - - - - - - -
22/02:30am 4.9 W 6 9 1025.4 - - - - - - - - -
22/02:00am 5.4 W 5 7 1025.5 - - - - - - - - -
22/01:30am 5.5 WSW 6 9 1025.4 - - - - - - - - -
22/01:00am 5.0 NW 2 4 1025.5 - - - - - - - - -
22/12:30am 4.8 WNW 3 5 1025.5 - - - - - - - - -

Other Formats:

Comma delimited format used in spreadsheet applications
http://www.bom.gov.au/fwo/IDT60701/IDT60701.95987.axf

JavaScript Object Notation format (JSON) in row-major order
http://www.bom.gov.au/fwo/IDT60701/IDT60701.95987.json